createdAt,value
2023-07-10T00:01:01.279Z,18.44
2023-07-10T00:03:30.343Z,18.48
2023-07-10T00:06:01.376Z,18.52
2023-07-10T00:08:28.702Z,18.56
2023-07-10T00:10:55.823Z,18.56
2023-07-10T00:13:23.380Z,18.56
2023-07-10T00:15:57.321Z,18.56
2023-07-10T00:18:24.636Z,18.53
2023-07-10T00:20:51.988Z,18.52
2023-07-10T00:23:19.092Z,18.47
2023-07-10T00:25:45.992Z,18.46
2023-07-10T00:28:18.965Z,18.46
2023-07-10T00:30:47.217Z,18.45
2023-07-10T00:33:16.273Z,18.42
2023-07-10T00:35:43.764Z,18.44
2023-07-10T00:38:24.976Z,18.46
2023-07-10T00:40:51.939Z,18.47
2023-07-10T00:43:24.806Z,18.49
2023-07-10T00:45:53.142Z,18.50
2023-07-10T00:48:42.295Z,18.52
2023-07-10T00:51:37.543Z,18.51
2023-07-10T00:54:07.221Z,18.50
2023-07-10T00:56:47.059Z,18.47
2023-07-10T00:59:23.600Z,18.43
2023-07-10T01:02:08.903Z,18.37
2023-07-10T01:04:37.106Z,18.34
2023-07-10T01:07:04.213Z,18.25
2023-07-10T01:09:31.090Z,18.22
2023-07-10T01:12:00.852Z,18.19
2023-07-10T01:14:27.607Z,18.18
2023-07-10T01:16:54.382Z,18.14
2023-07-10T01:19:24.400Z,18.14
2023-07-10T01:21:52.161Z,18.11
2023-07-10T01:24:19.016Z,18.06
2023-07-10T01:26:45.900Z,17.99
2023-07-10T01:29:28.492Z,18.00
2023-07-10T01:31:56.919Z,17.97
2023-07-10T01:34:31.642Z,17.94
2023-07-10T01:36:58.466Z,17.89
2023-07-10T01:39:35.428Z,17.83
2023-07-10T01:42:02.821Z,17.74
2023-07-10T01:44:38.707Z,17.68
2023-07-10T01:47:09.050Z,17.61
2023-07-10T01:49:43.522Z,17.58
2023-07-10T01:52:12.291Z,17.59
2023-07-10T01:54:40.023Z,17.57
2023-07-10T01:57:08.501Z,17.55
2023-07-10T01:59:35.232Z,17.52
2023-07-10T02:02:03.332Z,17.50
2023-07-10T02:04:30.256Z,17.45
2023-07-10T02:06:57.083Z,17.42
2023-07-10T02:09:25.238Z,17.36
2023-07-10T02:11:52.545Z,17.34
2023-07-10T02:14:19.600Z,17.30
2023-07-10T02:16:46.700Z,17.30
2023-07-10T02:19:14.066Z,17.25
2023-07-10T02:21:41.666Z,17.22
2023-07-10T02:24:08.670Z,17.22
2023-07-10T02:26:35.639Z,17.21
2023-07-10T02:29:02.769Z,17.22
2023-07-10T02:31:30.276Z,17.23
2023-07-10T02:33:57.347Z,17.22
2023-07-10T02:36:25.433Z,17.25
2023-07-10T02:38:52.256Z,17.27
2023-07-10T02:41:19.436Z,17.26
2023-07-10T02:43:46.160Z,17.28
2023-07-10T02:46:13.073Z,17.25
2023-07-10T02:48:39.802Z,17.22
2023-07-10T02:51:06.999Z,17.18
2023-07-10T02:53:34.144Z,17.14
2023-07-10T02:56:01.456Z,17.07
2023-07-10T02:58:28.476Z,16.99
2023-07-10T03:00:57.073Z,16.93
2023-07-10T03:03:24.574Z,16.88
2023-07-10T03:05:59.798Z,16.83
2023-07-10T03:08:27.497Z,16.76
2023-07-10T03:11:07.656Z,16.67
2023-07-10T03:13:35.195Z,16.61
2023-07-10T03:16:06.532Z,16.58
2023-07-10T03:18:33.955Z,16.54
2023-07-10T03:21:00.797Z,16.48
2023-07-10T03:23:27.938Z,16.41
2023-07-10T03:25:54.771Z,16.34
2023-07-10T03:28:21.835Z,16.25
2023-07-10T03:30:48.780Z,16.23
2023-07-10T03:33:17.552Z,16.18
2023-07-10T03:35:50.110Z,16.15
2023-07-10T03:38:17.847Z,16.13
2023-07-10T03:40:52.487Z,16.06
2023-07-10T03:43:19.278Z,16.03
2023-07-10T03:45:46.101Z,15.96
2023-07-10T03:48:12.862Z,15.89
2023-07-10T03:50:43.154Z,15.83
2023-07-10T03:53:10.148Z,15.80
2023-07-10T03:55:36.967Z,15.79
2023-07-10T03:58:16.917Z,15.82
2023-07-10T04:00:43.803Z,15.88
2023-07-10T04:03:11.475Z,15.91
2023-07-10T04:05:38.472Z,15.96
2023-07-10T04:08:05.657Z,16.01
2023-07-10T04:10:33.685Z,16.04
2023-07-10T04:13:00.658Z,16.06
2023-07-10T04:15:30.414Z,16.10
2023-07-10T04:17:57.227Z,16.16
2023-07-10T04:20:24.328Z,16.24
2023-07-10T04:22:51.010Z,16.34
2023-07-10T04:25:17.784Z,16.40
2023-07-10T04:27:44.688Z,16.43
2023-07-10T04:30:16.517Z,16.45
2023-07-10T04:32:43.428Z,16.47
2023-07-10T04:35:10.069Z,16.52
2023-07-10T04:37:36.735Z,16.57
2023-07-10T04:40:03.462Z,16.57
2023-07-10T04:42:31.084Z,16.58
2023-07-10T04:50:29.962Z,16.66
2023-07-10T04:52:59.906Z,16.74
2023-07-10T04:55:26.645Z,17.00
2023-07-10T04:57:53.339Z,17.79
2023-07-10T05:00:20.430Z,18.96
2023-07-10T05:02:47.961Z,18.67
2023-07-10T05:05:14.989Z,19.20
2023-07-10T05:07:41.628Z,20.05
2023-07-10T05:10:08.738Z,20.81
2023-07-10T05:12:35.303Z,21.27
2023-07-10T05:15:01.870Z,20.71
2023-07-10T05:17:28.760Z,20.26
2023-07-10T05:19:55.556Z,20.05
2023-07-10T05:22:30.552Z,20.77
2023-07-10T05:24:57.487Z,21.74
2023-07-10T05:27:24.135Z,21.43
2023-07-10T05:29:50.930Z,21.73
2023-07-10T05:32:17.966Z,22.51
2023-07-10T05:34:44.681Z,23.32
2023-07-10T05:37:11.780Z,23.85
2023-07-10T05:39:38.451Z,24.28
2023-07-10T05:42:05.763Z,24.38
2023-07-10T05:44:32.366Z,24.66
2023-07-10T05:46:59.033Z,23.35
2023-07-10T05:49:26.090Z,22.63
2023-07-10T05:51:53.925Z,22.28
2023-07-10T05:54:22.994Z,21.63
2023-07-10T05:56:50.866Z,21.34
2023-07-10T05:59:22.850Z,21.37
2023-07-10T06:01:50.620Z,21.16
2023-07-10T06:04:17.502Z,20.75
2023-07-10T06:06:46.001Z,20.57
2023-07-10T06:09:16.220Z,20.61
2023-07-10T06:11:42.859Z,20.57
2023-07-10T06:14:09.497Z,20.65
2023-07-10T06:16:36.285Z,20.77
2023-07-10T06:19:03.040Z,20.52
2023-07-10T06:21:29.674Z,20.40
2023-07-10T06:23:56.563Z,20.44
2023-07-10T06:26:23.258Z,20.35
2023-07-10T06:28:50.789Z,20.38
2023-07-10T06:31:18.542Z,20.39
2023-07-10T06:33:45.115Z,20.52
2023-07-10T06:36:11.817Z,20.59
2023-07-10T06:38:38.479Z,20.57
2023-07-10T06:41:07.665Z,20.62
2023-07-10T06:43:34.682Z,20.64
2023-07-10T06:46:01.422Z,20.81
2023-07-10T06:48:28.358Z,21.05
2023-07-10T06:50:57.000Z,21.37
2023-07-10T06:53:27.684Z,21.57
2023-07-10T06:56:00.326Z,21.57
2023-07-10T06:58:28.306Z,21.70
2023-07-10T07:00:55.773Z,21.78
2023-07-10T07:03:23.269Z,21.89
2023-07-10T07:05:50.218Z,21.91
2023-07-10T07:08:20.804Z,21.78
2023-07-10T07:10:49.298Z,21.86
2023-07-10T07:13:16.542Z,21.97
2023-07-10T07:15:43.855Z,21.95
2023-07-10T07:18:10.730Z,22.10
2023-07-10T07:20:37.252Z,22.18
2023-07-10T07:23:03.840Z,22.33
2023-07-10T07:25:31.332Z,22.42
2023-07-10T07:28:01.393Z,22.60
2023-07-10T07:30:32.360Z,22.82
2023-07-10T07:32:59.756Z,22.69
2023-07-10T07:35:26.908Z,22.87
2023-07-10T07:37:54.259Z,22.70
2023-07-10T07:40:21.087Z,22.73
2023-07-10T07:42:48.390Z,22.94
2023-07-10T07:45:16.142Z,23.17
2023-07-10T07:47:43.116Z,23.13
2023-07-10T07:50:10.513Z,23.18
2023-07-10T07:52:37.549Z,23.14
2023-07-10T07:55:10.190Z,23.26
2023-07-10T07:57:39.245Z,23.45
2023-07-10T08:00:08.089Z,23.35
2023-07-10T08:02:34.967Z,23.42
2023-07-10T08:05:02.951Z,23.30
2023-07-10T08:07:29.736Z,23.18
2023-07-10T08:09:56.415Z,23.32
2023-07-10T08:12:24.559Z,23.70
2023-07-10T08:14:51.205Z,23.75
2023-07-10T08:17:17.671Z,23.64
2023-07-10T08:19:44.322Z,23.55
2023-07-10T08:22:10.857Z,23.33
2023-07-10T08:24:37.463Z,23.39
2023-07-10T08:27:04.369Z,23.50
2023-07-10T08:29:35.390Z,23.56
2023-07-10T08:32:02.809Z,23.56
2023-07-10T08:34:31.590Z,23.57
2023-07-10T08:37:02.795Z,23.56
2023-07-10T08:39:29.466Z,23.83
2023-07-10T08:42:01.514Z,24.04
2023-07-10T08:44:39.100Z,24.15
2023-07-10T08:47:17.213Z,23.93
2023-07-10T08:49:55.782Z,23.77
2023-07-10T08:52:45.363Z,24.03
2023-07-10T08:55:13.949Z,23.96
2023-07-10T08:57:49.029Z,24.07
2023-07-10T09:00:16.628Z,24.02
2023-07-10T09:02:46.642Z,24.18
2023-07-10T09:05:28.175Z,24.25
2023-07-10T09:07:56.858Z,24.15
2023-07-10T09:10:32.750Z,24.38
2023-07-10T09:13:04.635Z,24.50
2023-07-10T09:15:37.576Z,24.72
2023-07-10T09:18:25.551Z,25.06
2023-07-10T09:20:58.557Z,24.73
2023-07-10T09:23:29.491Z,24.10
2023-07-10T09:25:58.384Z,24.17
2023-07-10T09:28:26.096Z,24.31
2023-07-10T09:31:20.469Z,24.18
2023-07-10T09:34:00.432Z,24.22
2023-07-10T09:36:28.740Z,24.44
2023-07-10T09:38:58.106Z,24.52
2023-07-10T09:41:29.878Z,24.73
2023-07-10T09:43:59.915Z,24.90
2023-07-10T09:46:36.924Z,24.87
2023-07-10T09:49:13.371Z,24.93
2023-07-10T09:52:02.079Z,25.34
2023-07-10T09:54:40.366Z,25.61
2023-07-10T09:57:19.347Z,25.14
2023-07-10T09:59:54.730Z,25.00
2023-07-10T10:02:34.193Z,24.75
2023-07-10T10:05:30.447Z,24.74
2023-07-10T10:08:19.954Z,24.84
2023-07-10T10:11:09.691Z,25.32
2023-07-10T10:13:58.020Z,25.53
2023-07-10T10:16:30.964Z,25.50
2023-07-10T10:19:20.567Z,25.83
2023-07-10T10:21:47.648Z,25.92
2023-07-10T10:24:14.917Z,25.88
2023-07-10T10:26:44.407Z,25.36
2023-07-10T10:29:58.663Z,25.38
2023-07-10T10:32:45.032Z,25.52
2023-07-10T10:35:38.540Z,26.08
2023-07-10T10:38:18.967Z,26.18
2023-07-10T10:41:45.207Z,26.72
2023-07-10T10:44:14.497Z,26.83
2023-07-10T10:47:31.172Z,26.77
2023-07-10T10:50:30.239Z,26.73
2023-07-10T10:53:17.475Z,26.71
2023-07-10T10:56:03.507Z,26.65
2023-07-10T10:58:56.709Z,26.97
2023-07-10T11:01:42.413Z,26.31
2023-07-10T11:04:15.027Z,26.09
2023-07-10T11:06:54.352Z,25.85
2023-07-10T11:09:32.847Z,25.59
2023-07-10T11:12:01.244Z,25.24
2023-07-10T11:14:29.180Z,25.47
2023-07-10T11:16:59.378Z,25.45
2023-07-10T11:19:29.643Z,25.50
2023-07-10T11:21:56.512Z,25.54
2023-07-10T11:24:26.121Z,25.33
2023-07-10T11:26:54.757Z,25.53
2023-07-10T11:29:37.645Z,25.27
2023-07-10T11:32:15.400Z,25.38
2023-07-10T11:35:21.926Z,25.25
2023-07-10T11:37:48.690Z,25.00
2023-07-10T11:40:46.066Z,25.24
2023-07-10T11:43:40.029Z,25.73
2023-07-10T11:46:18.908Z,26.11
2023-07-10T11:49:09.861Z,26.25
2023-07-10T11:51:36.539Z,26.01
2023-07-10T11:54:06.470Z,26.03
2023-07-10T11:56:34.184Z,25.92
2023-07-10T11:59:01.693Z,25.56
2023-07-10T12:01:28.611Z,25.41
2023-07-10T12:03:56.730Z,25.47
2023-07-10T12:06:25.826Z,26.21
2023-07-10T12:08:54.399Z,26.64
2023-07-10T12:11:37.243Z,26.28
2023-07-10T12:14:25.417Z,26.67
2023-07-10T12:17:25.790Z,27.05
2023-07-10T12:19:46.363Z,27.25
2023-07-10T12:22:23.598Z,27.24
2023-07-10T12:24:53.500Z,27.53
2023-07-10T12:29:55.436Z,28.48
2023-07-10T12:32:25.544Z,28.58
2023-07-10T12:34:54.813Z,29.10
2023-07-10T12:37:22.224Z,28.57
2023-07-10T12:39:52.209Z,27.91
2023-07-10T12:42:37.658Z,27.38
2023-07-10T12:45:16.336Z,27.47
2023-07-10T12:50:35.236Z,28.15
2023-07-10T12:53:05.838Z,28.08
2023-07-10T12:55:33.257Z,28.48
2023-07-10T12:58:01.932Z,28.40
2023-07-10T13:01:01.811Z,28.18
2023-07-10T13:03:37.726Z,27.73
2023-07-10T13:06:08.607Z,28.10
2023-07-10T13:08:41.830Z,28.47
2023-07-10T13:11:35.795Z,28.66
2023-07-10T13:16:44.164Z,28.97
2023-07-10T13:19:10.764Z,29.08
2023-07-10T13:21:37.341Z,28.62
2023-07-10T13:24:04.176Z,28.21
2023-07-10T13:26:30.774Z,27.53
2023-07-10T13:28:57.291Z,27.28
2023-07-10T13:31:29.367Z,27.02
2023-07-10T13:33:56.062Z,27.37
2023-07-10T13:36:25.806Z,28.23
2023-07-10T13:38:53.573Z,29.09
2023-07-10T13:41:25.325Z,29.46
2023-07-10T13:43:53.844Z,28.67
2023-07-10T13:46:28.119Z,28.98
2023-07-10T13:48:57.548Z,30.30
2023-07-10T13:51:27.041Z,30.64
2023-07-10T13:53:54.676Z,29.73
2023-07-10T13:56:28.807Z,29.88
2023-07-10T13:58:56.190Z,31.09
2023-07-10T14:01:24.691Z,32.03
2023-07-10T14:03:51.786Z,32.27
2023-07-10T14:06:36.256Z,32.29
2023-07-10T14:09:16.722Z,32.15
2023-07-10T14:11:43.758Z,32.13
2023-07-10T14:14:18.980Z,31.82
2023-07-10T14:16:47.032Z,31.69
2023-07-10T14:19:18.540Z,32.38
2023-07-10T14:21:47.280Z,33.46
2023-07-10T14:24:14.378Z,33.55
2023-07-10T14:26:41.174Z,33.21
2023-07-10T14:29:09.213Z,32.71
2023-07-10T14:31:35.910Z,32.98
2023-07-10T14:34:02.596Z,32.78
2023-07-10T14:36:29.374Z,33.13
2023-07-10T14:38:56.077Z,33.77
2023-07-10T14:41:25.384Z,34.67
2023-07-10T14:43:53.146Z,34.83
2023-07-10T14:46:31.857Z,35.63
2023-07-10T14:49:05.169Z,36.06
2023-07-10T14:51:31.813Z,36.00
2023-07-10T14:53:59.371Z,35.82
2023-07-10T14:56:25.936Z,36.24
2023-07-10T14:58:52.484Z,35.67
2023-07-10T15:01:19.389Z,36.03
2023-07-10T15:03:47.771Z,35.92
2023-07-10T15:06:28.474Z,36.51
2023-07-10T15:08:55.403Z,35.58
2023-07-10T15:11:23.583Z,34.21
2023-07-10T15:13:50.852Z,32.91
2023-07-10T15:16:20.300Z,33.00
2023-07-10T15:18:48.027Z,31.93
2023-07-10T15:21:17.296Z,31.84
2023-07-10T15:23:44.174Z,33.11
2023-07-10T15:26:11.303Z,34.13
2023-07-10T15:28:38.083Z,34.02
2023-07-10T15:31:07.398Z,33.15
2023-07-10T15:33:37.633Z,32.12
2023-07-10T15:36:05.557Z,31.08
2023-07-10T15:38:37.631Z,30.91
2023-07-10T15:41:18.577Z,32.89
2023-07-10T15:43:46.705Z,34.78
2023-07-10T15:46:13.450Z,35.66
2023-07-10T15:48:40.930Z,35.98
2023-07-10T15:51:20.252Z,36.21
2023-07-10T15:53:46.832Z,36.19
2023-07-10T15:56:13.385Z,35.46
2023-07-10T15:58:40.257Z,34.67
2023-07-10T16:01:13.570Z,33.28
2023-07-10T16:03:40.225Z,32.36
2023-07-10T16:06:06.932Z,31.17
2023-07-10T16:08:37.051Z,30.31
2023-07-10T16:11:09.945Z,29.33
2023-07-10T16:13:37.085Z,28.50
2023-07-10T16:18:44.496Z,27.66
2023-07-10T16:21:14.537Z,27.39
2023-07-10T16:23:41.238Z,27.27
2023-07-10T16:26:08.279Z,27.12
2023-07-10T16:28:35.054Z,26.98
2023-07-10T16:31:01.722Z,26.96
2023-07-10T16:33:30.660Z,27.02
2023-07-10T16:35:58.127Z,26.90
2023-07-10T16:38:26.412Z,26.77
2023-07-10T16:40:56.129Z,26.72
2023-07-10T16:43:34.230Z,26.68
2023-07-10T16:46:01.859Z,26.74
2023-07-10T16:48:29.891Z,26.72
2023-07-10T16:51:01.854Z,26.62
2023-07-10T16:53:32.812Z,26.48
2023-07-10T16:56:03.005Z,26.44
2023-07-10T16:58:31.922Z,26.62
2023-07-10T17:00:59.848Z,26.60
2023-07-10T17:03:33.315Z,26.56
2023-07-10T17:06:01.186Z,26.54
2023-07-10T17:08:29.310Z,26.39
2023-07-10T17:10:59.754Z,26.39
2023-07-10T17:13:30.505Z,26.43
2023-07-10T17:15:58.024Z,26.45
2023-07-10T17:18:27.682Z,26.47
2023-07-10T17:20:56.936Z,26.25
2023-07-10T17:23:29.017Z,26.19
2023-07-10T17:25:56.585Z,26.28
2023-07-10T17:28:26.639Z,26.18
2023-07-10T17:30:55.683Z,26.00
2023-07-10T17:33:31.923Z,26.04
2023-07-10T17:35:59.009Z,26.12
2023-07-10T17:38:28.675Z,26.10
2023-07-10T17:40:55.313Z,26.05
2023-07-10T17:43:22.029Z,26.13
2023-07-10T17:45:48.757Z,26.05
2023-07-10T17:48:20.465Z,26.00
2023-07-10T17:50:48.076Z,25.72
2023-07-10T17:53:16.826Z,25.67
2023-07-10T17:55:48.429Z,25.68
2023-07-10T17:58:18.011Z,25.69
2023-07-10T18:00:46.999Z,25.63
2023-07-10T18:03:15.538Z,25.71
2023-07-10T18:05:44.305Z,25.68
2023-07-10T18:08:28.039Z,25.42
2023-07-10T18:11:02.556Z,25.21
2023-07-10T18:13:37.063Z,25.16
2023-07-10T18:16:06.832Z,25.01
2023-07-10T18:18:38.098Z,24.84
2023-07-10T18:21:25.163Z,24.76
2023-07-10T18:23:52.127Z,24.56
2023-07-10T18:26:21.057Z,24.39
2023-07-10T18:28:49.951Z,24.27
2023-07-10T18:31:25.410Z,24.15
2023-07-10T18:33:53.747Z,24.12
2023-07-10T18:36:21.368Z,24.15
2023-07-10T18:38:48.207Z,24.06
2023-07-10T18:41:26.825Z,24.05
2023-07-10T18:43:55.484Z,23.99
2023-07-10T18:46:24.657Z,23.89
2023-07-10T18:48:53.336Z,23.71
2023-07-10T18:51:27.603Z,23.55
2023-07-10T18:53:57.560Z,23.41
2023-07-10T18:56:24.316Z,23.28
2023-07-10T18:58:50.996Z,23.25
2023-07-10T19:01:21.647Z,23.26
2023-07-10T19:03:53.807Z,23.22
2023-07-10T19:06:25.630Z,23.21
2023-07-10T19:08:52.119Z,23.12
2023-07-10T19:11:19.465Z,22.98
2023-07-10T19:13:47.272Z,22.82
2023-07-10T19:16:22.464Z,22.68
2023-07-10T19:18:59.787Z,22.62
2023-07-10T19:21:28.124Z,22.52
2023-07-10T19:23:54.784Z,22.46
2023-07-10T19:26:23.858Z,22.36
2023-07-10T19:28:51.259Z,22.30
2023-07-10T19:31:21.545Z,22.20
2023-07-10T19:33:50.638Z,22.11
2023-07-10T19:36:28.648Z,21.96
2023-07-10T19:38:56.375Z,21.91
2023-07-10T19:41:24.499Z,21.85
2023-07-10T19:43:51.330Z,21.76
2023-07-10T19:46:20.841Z,21.69
2023-07-10T19:48:48.110Z,21.56
2023-07-10T19:51:15.307Z,21.43
2023-07-10T19:53:42.346Z,21.35
2023-07-10T19:56:18.636Z,21.32
2023-07-10T19:58:51.260Z,21.26
2023-07-10T20:01:19.621Z,21.19
2023-07-10T20:03:47.349Z,21.12
2023-07-10T20:06:32.789Z,21.05
2023-07-10T20:09:03.644Z,20.98
2023-07-10T20:11:30.542Z,20.92
2023-07-10T20:13:57.208Z,20.87
2023-07-10T20:16:26.922Z,20.76
2023-07-10T20:18:54.939Z,20.63
2023-07-10T20:21:22.987Z,20.57
2023-07-10T20:23:52.087Z,20.50
2023-07-10T20:26:22.078Z,20.45
2023-07-10T20:28:49.417Z,20.41
2023-07-10T20:31:19.426Z,20.36
2023-07-10T20:33:47.861Z,20.30
2023-07-10T20:36:17.710Z,20.27
2023-07-10T20:38:46.890Z,20.21
2023-07-10T20:41:16.996Z,20.19
2023-07-10T20:43:47.343Z,20.15
2023-07-10T20:46:17.863Z,20.05
2023-07-10T20:48:44.969Z,19.95
2023-07-10T20:51:25.164Z,19.91
2023-07-10T20:53:56.963Z,19.89
2023-07-10T20:56:31.692Z,19.82
2023-07-10T20:59:02.063Z,19.82
2023-07-10T21:01:30.845Z,19.77
2023-07-10T21:03:58.862Z,19.73
2023-07-10T21:06:31.413Z,19.67
2023-07-10T21:09:00.048Z,19.59
2023-07-10T21:11:29.282Z,19.56
2023-07-10T21:13:56.804Z,19.52
2023-07-10T21:16:31.707Z,19.48
2023-07-10T21:19:05.093Z,19.45
2023-07-10T21:21:31.902Z,19.41
2023-07-10T21:23:58.737Z,19.32
2023-07-10T21:26:40.722Z,19.20
2023-07-10T21:29:14.141Z,19.11
2023-07-10T21:31:40.903Z,19.09
2023-07-10T21:34:13.405Z,19.08
2023-07-10T21:36:41.117Z,19.07
2023-07-10T21:39:08.650Z,19.06
2023-07-10T21:41:40.903Z,19.05
2023-07-10T21:44:14.092Z,19.03
2023-07-10T21:47:00.095Z,18.98
2023-07-10T21:49:27.106Z,18.86
2023-07-10T21:51:53.790Z,18.80
2023-07-10T21:54:20.630Z,18.79
2023-07-10T21:56:48.107Z,18.76
2023-07-10T21:59:21.479Z,18.74
2023-07-10T22:01:49.837Z,18.71
2023-07-10T22:04:18.096Z,18.75
2023-07-10T22:06:46.399Z,18.73
2023-07-10T22:09:14.901Z,18.67
2023-07-10T22:11:43.521Z,18.59
2023-07-10T22:14:15.081Z,18.54
2023-07-10T22:16:44.670Z,18.49
2023-07-10T22:19:13.168Z,18.41
2023-07-10T22:21:41.188Z,18.36
2023-07-10T22:24:15.767Z,18.34
2023-07-10T22:26:42.440Z,18.24
2023-07-10T22:29:09.509Z,18.06
2023-07-10T22:31:41.358Z,17.97
2023-07-10T22:34:08.575Z,17.91
2023-07-10T22:36:35.469Z,17.80
2023-07-10T22:39:02.303Z,17.72
2023-07-10T22:41:33.989Z,17.68
2023-07-10T22:44:08.393Z,17.62
2023-07-10T22:46:39.428Z,17.61
2023-07-10T22:49:08.468Z,17.59
2023-07-10T22:51:38.691Z,17.57
2023-07-10T22:54:05.749Z,17.54
2023-07-10T22:56:35.499Z,17.53
2023-07-10T22:59:03.083Z,17.54
2023-07-10T23:01:30.409Z,17.58
2023-07-10T23:03:57.350Z,17.61
2023-07-10T23:06:32.783Z,17.60
2023-07-10T23:09:00.188Z,17.64
2023-07-10T23:11:27.539Z,17.68
2023-07-10T23:13:54.265Z,17.69
2023-07-10T23:16:24.968Z,17.70
2023-07-10T23:18:57.988Z,17.70
2023-07-10T23:21:26.518Z,17.71
2023-07-10T23:23:54.260Z,17.71
2023-07-10T23:26:22.626Z,17.71
2023-07-10T23:28:50.123Z,17.68
2023-07-10T23:31:23.314Z,17.64
2023-07-10T23:33:51.004Z,17.54
2023-07-10T23:36:19.182Z,17.48
2023-07-10T23:38:46.735Z,17.46
2023-07-10T23:41:14.014Z,17.42
2023-07-10T23:43:42.298Z,17.40
2023-07-10T23:46:13.083Z,17.30
2023-07-10T23:48:41.238Z,17.28
2023-07-10T23:51:08.044Z,17.32
2023-07-10T23:53:34.965Z,17.31
2023-07-10T23:56:04.877Z,17.34
2023-07-10T23:58:31.872Z,17.38
